createdAt,value
2022-10-22T00:01:05.840Z,11.88
2022-10-22T00:03:32.884Z,11.50
2022-10-22T00:05:59.755Z,8.43
2022-10-22T00:08:26.561Z,9.75
2022-10-22T00:10:53.572Z,8.02
2022-10-22T00:13:20.611Z,9.38
2022-10-22T00:15:47.490Z,10.80
2022-10-22T00:18:14.239Z,12.43
2022-10-22T00:20:41.261Z,9.57
2022-10-22T00:23:08.007Z,12.63
2022-10-22T00:25:36.202Z,10.90
2022-10-22T00:28:03.750Z,9.45
2022-10-22T00:30:30.571Z,9.05
2022-10-22T00:32:57.308Z,9.75
2022-10-22T00:35:24.062Z,11.07
2022-10-22T00:37:50.808Z,10.13
2022-10-22T00:40:17.628Z,10.95
2022-10-22T00:42:44.315Z,9.93
2022-10-22T00:45:10.987Z,8.40
2022-10-22T00:47:48.831Z,12.48
2022-10-22T00:50:24.680Z,10.45
2022-10-22T00:52:51.794Z,10.38
2022-10-22T00:55:20.762Z,11.45
2022-10-22T00:57:48.503Z,10.48
2022-10-22T01:00:15.927Z,12.70
2022-10-22T01:02:43.028Z,10.68
2022-10-22T01:05:10.496Z,9.27
2022-10-22T01:07:47.331Z,10.30
2022-10-22T01:10:20.017Z,10.13
2022-10-22T01:12:46.744Z,10.93
2022-10-22T01:15:22.223Z,8.18
2022-10-22T01:18:09.495Z,10.57
2022-10-22T01:20:39.197Z,12.20
2022-10-22T01:23:22.014Z,12.30
2022-10-22T01:26:28.226Z,11.52
2022-10-22T01:29:05.552Z,10.93
2022-10-22T01:31:38.140Z,11.10
2022-10-22T01:34:08.399Z,9.45
2022-10-22T01:36:37.509Z,13.60
2022-10-22T01:39:06.358Z,12.18
2022-10-22T01:41:35.217Z,9.57
2022-10-22T01:44:02.024Z,11.77
2022-10-22T01:46:29.692Z,15.82
2022-10-22T01:49:02.289Z,12.13
2022-10-22T01:51:47.067Z,11.80
2022-10-22T01:54:26.654Z,11.82
2022-10-22T01:57:10.452Z,13.50
2022-10-22T02:00:00.245Z,10.25
2022-10-22T02:02:36.003Z,8.63
2022-10-22T02:05:13.046Z,10.65
2022-10-22T02:07:46.920Z,12.63
2022-10-22T02:10:14.481Z,12.88
2022-10-22T02:12:43.276Z,10.18
2022-10-22T02:15:12.439Z,9.85
2022-10-22T02:17:42.536Z,10.20
2022-10-22T02:20:22.268Z,13.15
2022-10-22T02:22:49.098Z,13.02
2022-10-22T02:25:17.004Z,13.02
2022-10-22T02:27:49.488Z,11.63
2022-10-22T02:30:21.486Z,13.07
2022-10-22T02:33:07.025Z,11.77
2022-10-22T02:35:35.419Z,13.07
2022-10-22T02:38:03.398Z,10.40
2022-10-22T02:40:32.009Z,14.43
2022-10-22T02:42:59.190Z,11.52
2022-10-22T02:45:26.073Z,11.77
2022-10-22T02:47:52.951Z,9.32
2022-10-22T02:50:19.679Z,11.48
2022-10-22T02:52:46.404Z,8.63
2022-10-22T02:55:13.468Z,9.40
2022-10-22T02:57:40.484Z,9.88
2022-10-22T03:00:09.456Z,11.45
2022-10-22T03:02:36.380Z,12.88
2022-10-22T03:05:04.449Z,13.27
2022-10-22T03:07:31.291Z,12.40
2022-10-22T03:09:57.985Z,9.40
2022-10-22T03:12:24.714Z,15.25
2022-10-22T03:14:51.442Z,10.00
2022-10-22T03:17:19.093Z,10.77
2022-10-22T03:19:45.781Z,12.98
2022-10-22T03:22:24.982Z,7.85
2022-10-22T03:24:58.414Z,11.25
2022-10-22T03:27:28.402Z,8.77
2022-10-22T03:29:56.885Z,8.82
2022-10-22T03:32:23.597Z,8.60
2022-10-22T03:34:50.424Z,10.57
2022-10-22T03:37:17.466Z,7.88
2022-10-22T03:39:44.485Z,9.20
2022-10-22T03:42:13.312Z,7.85
2022-10-22T03:44:40.823Z,6.63
2022-10-22T03:47:07.882Z,7.88
2022-10-22T03:49:34.699Z,11.00
2022-10-22T03:52:12.901Z,10.25
2022-10-22T03:54:40.334Z,8.82
2022-10-22T03:57:07.386Z,7.32
2022-10-22T03:59:42.681Z,10.60
2022-10-22T04:02:10.289Z,8.00
2022-10-22T04:04:37.648Z,8.82
2022-10-22T04:07:05.858Z,8.60
2022-10-22T04:09:33.614Z,12.10
2022-10-22T04:12:01.048Z,7.95
2022-10-22T04:14:27.904Z,7.30
2022-10-22T04:16:54.794Z,7.40
2022-10-22T04:19:21.617Z,8.10
2022-10-22T04:21:48.396Z,7.90
2022-10-22T04:24:15.384Z,7.57
2022-10-22T04:26:42.373Z,8.88
2022-10-22T04:29:13.389Z,8.90
2022-10-22T04:31:43.306Z,8.40
2022-10-22T04:34:10.173Z,6.28
2022-10-22T04:36:36.901Z,7.97
2022-10-22T04:39:04.856Z,5.13
2022-10-22T04:41:39.199Z,6.13
2022-10-22T04:44:09.885Z,7.00
2022-10-22T04:46:40.253Z,12.93
2022-10-22T04:49:07.019Z,8.30
2022-10-22T04:51:33.803Z,8.73
2022-10-22T04:54:00.619Z,6.97
2022-10-22T04:56:30.231Z,8.32
2022-10-22T04:59:02.738Z,7.22
2022-10-22T05:01:32.523Z,8.77
2022-10-22T05:04:02.174Z,8.95
2022-10-22T05:06:30.553Z,8.07
2022-10-22T05:09:00.205Z,8.25
2022-10-22T05:11:33.992Z,5.82
2022-10-22T05:14:03.046Z,6.32
2022-10-22T05:16:33.914Z,5.95
2022-10-22T05:19:02.052Z,10.50
2022-10-22T05:21:29.064Z,7.35
2022-10-22T05:23:57.398Z,7.10
2022-10-22T05:26:25.165Z,7.45
2022-10-22T05:28:52.805Z,10.70
2022-10-22T05:31:20.041Z,8.98
2022-10-22T05:33:47.599Z,7.15
2022-10-22T05:36:19.100Z,7.63
2022-10-22T05:38:46.308Z,5.57
2022-10-22T05:41:16.471Z,5.40
2022-10-22T05:43:43.519Z,8.10
2022-10-22T05:46:12.956Z,6.30
2022-10-22T05:48:40.264Z,7.53
2022-10-22T05:51:10.173Z,7.43
2022-10-22T05:53:39.178Z,7.55
2022-10-22T05:56:16.840Z,8.38
2022-10-22T05:58:45.519Z,10.85
2022-10-22T06:01:24.498Z,7.60
2022-10-22T06:03:54.894Z,7.45
2022-10-22T06:06:24.232Z,7.03
2022-10-22T06:08:52.921Z,7.03
2022-10-22T06:11:21.132Z,9.13
2022-10-22T06:13:49.582Z,8.23
2022-10-22T06:16:16.609Z,6.88
2022-10-22T06:18:43.360Z,4.35
2022-10-22T06:21:16.057Z,4.85
2022-10-22T06:26:11.000Z,9.43
2022-10-22T06:28:38.549Z,8.60
2022-10-22T06:31:05.628Z,3.80
2022-10-22T06:33:34.343Z,5.97
2022-10-22T06:36:10.206Z,9.82
2022-10-22T06:38:36.928Z,5.75
2022-10-22T06:41:09.967Z,6.78
2022-10-22T06:43:37.045Z,6.55
2022-10-22T06:46:07.259Z,7.93
2022-10-22T06:48:36.087Z,5.60
2022-10-22T08:01:42.654Z,5.90
2022-10-22T08:04:09.966Z,6.15
2022-10-22T08:06:37.056Z,6.63
2022-10-22T08:09:04.097Z,4.78
2022-10-22T08:11:33.526Z,6.25
2022-10-22T08:14:00.750Z,5.30
2022-10-22T08:16:27.596Z,7.05
2022-10-22T08:18:54.401Z,5.55
2022-10-22T08:21:21.167Z,6.15
2022-10-22T08:23:47.911Z,5.38
2022-10-22T08:26:14.691Z,4.10
2022-10-22T08:28:41.681Z,5.95
2022-10-22T08:31:08.896Z,6.20
2022-10-22T08:33:35.809Z,4.43
2022-10-22T08:36:02.814Z,3.90
2022-10-22T08:38:31.415Z,5.28
2022-10-22T08:41:07.720Z,4.75
2022-10-22T08:43:59.102Z,5.10
2022-10-22T08:46:25.838Z,6.07
2022-10-22T08:49:00.435Z,6.22
2022-10-22T08:51:34.374Z,6.25
2022-10-22T08:54:19.483Z,4.82
2022-10-22T08:56:57.299Z,5.47
2022-10-22T08:59:30.424Z,6.55
2022-10-22T09:01:57.352Z,5.88
2022-10-22T09:04:30.944Z,5.03
2022-10-22T09:06:59.598Z,8.50
2022-10-22T09:09:31.823Z,6.90
2022-10-22T09:12:00.710Z,9.90
2022-10-22T09:14:27.770Z,4.88
2022-10-22T09:17:00.217Z,5.30
2022-10-22T09:19:26.925Z,7.25
2022-10-22T09:22:27.346Z,4.80
2022-10-22T09:25:21.338Z,5.10
2022-10-22T09:27:49.277Z,4.35
2022-10-22T09:30:18.695Z,4.00
2022-10-22T09:32:45.771Z,4.32
2022-10-22T09:35:15.199Z,5.25
2022-10-22T09:37:50.177Z,4.18
2022-10-22T09:40:18.336Z,5.25
2022-10-22T09:42:46.839Z,6.10
2022-10-22T09:45:21.060Z,5.82
2022-10-22T09:48:03.984Z,4.93
2022-10-22T09:50:47.541Z,4.47
2022-10-22T09:53:17.274Z,4.97
2022-10-22T09:55:49.125Z,3.70
2022-10-22T09:58:19.528Z,5.18
2022-10-22T10:00:51.451Z,4.57
2022-10-22T10:03:21.736Z,4.67
2022-10-22T10:05:53.459Z,6.20
2022-10-22T10:08:20.896Z,4.00
2022-10-22T10:10:54.653Z,5.93
2022-10-22T10:13:21.286Z,6.25
2022-10-22T10:16:12.080Z,7.00
2022-10-22T10:18:58.925Z,4.50
2022-10-22T10:21:57.284Z,5.68
2022-10-22T10:24:39.011Z,5.72
2022-10-22T10:27:15.453Z,5.75
2022-10-22T10:29:58.281Z,4.60
2022-10-22T10:32:37.298Z,5.05
2022-10-22T10:35:25.596Z,5.28
2022-10-22T10:38:14.002Z,4.43
2022-10-22T10:40:55.598Z,4.28
2022-10-22T10:43:49.986Z,5.63
2022-10-22T10:46:39.862Z,4.90
2022-10-22T10:49:23.265Z,4.25
2022-10-22T10:52:20.483Z,5.85
2022-10-22T10:55:06.950Z,5.13
2022-10-22T10:57:44.464Z,5.55
2022-10-22T11:00:20.832Z,5.07
2022-10-22T11:03:09.129Z,4.97
2022-10-22T11:05:44.322Z,5.55
2022-10-22T11:08:25.297Z,4.47
2022-10-22T11:10:57.835Z,7.45
2022-10-22T11:13:40.351Z,6.50
2022-10-22T11:16:25.093Z,6.10
2022-10-22T11:19:22.731Z,5.28
2022-10-22T11:21:52.840Z,6.57
2022-10-22T11:25:03.109Z,5.63
2022-10-22T11:27:48.761Z,7.13
2022-10-22T11:30:24.648Z,8.55
2022-10-22T11:32:58.177Z,5.43
2022-10-22T11:35:28.762Z,6.05
2022-10-22T11:37:57.412Z,6.20
2022-10-22T11:41:01.394Z,6.70
2022-10-22T11:43:32.726Z,6.13
2022-10-22T11:46:27.389Z,5.97
2022-10-22T11:49:15.349Z,5.82
2022-10-22T11:51:44.012Z,4.47
2022-10-22T11:54:32.654Z,5.38
2022-10-22T11:57:14.561Z,6.20
2022-10-22T11:59:47.462Z,4.22
2022-10-22T12:02:23.125Z,4.55
2022-10-22T12:04:50.135Z,4.97
2022-10-22T12:07:35.814Z,7.18
2022-10-22T12:10:18.475Z,5.38
2022-10-22T12:12:55.768Z,4.85
2022-10-22T12:15:29.033Z,7.22
2022-10-22T12:18:05.538Z,6.40
2022-10-22T12:20:32.454Z,6.57
2022-10-22T12:23:00.126Z,6.03
2022-10-22T12:25:35.596Z,6.30
2022-10-22T12:28:02.865Z,7.20
2022-10-22T12:30:34.705Z,5.57
2022-10-22T12:33:04.486Z,5.90
2022-10-22T12:35:43.182Z,4.88
2022-10-22T12:38:18.430Z,5.43
2022-10-22T12:40:48.400Z,6.63
2022-10-22T12:43:28.985Z,4.65
2022-10-22T12:45:57.813Z,4.63
2022-10-22T12:48:34.538Z,7.00
2022-10-22T12:51:04.118Z,5.25
2022-10-22T12:53:35.034Z,7.38
2022-10-22T12:56:25.336Z,7.68
2022-10-22T12:58:57.159Z,5.95
2022-10-22T13:01:27.985Z,8.87
2022-10-22T13:04:13.348Z,7.63
2022-10-22T13:06:45.761Z,6.28
2022-10-22T13:09:26.942Z,7.50
2022-10-22T13:12:02.342Z,4.73
2022-10-22T13:14:32.116Z,7.13
2022-10-22T13:17:15.175Z,6.35
2022-10-22T13:22:35.527Z,5.45
2022-10-22T13:25:19.360Z,5.28
2022-10-22T13:27:48.358Z,5.35
2022-10-22T13:30:20.345Z,5.55
2022-10-22T13:32:57.611Z,5.35
2022-10-22T13:35:27.544Z,5.32
2022-10-22T13:37:54.467Z,6.57
2022-10-22T13:40:21.668Z,4.22
2022-10-22T13:42:48.513Z,7.88
2022-10-22T13:45:16.434Z,5.82
2022-10-22T13:47:48.565Z,5.47
2022-10-22T13:50:19.019Z,5.18
2022-10-22T13:52:54.691Z,5.88
2022-10-22T13:55:25.409Z,5.53
2022-10-22T13:57:55.667Z,5.88
2022-10-22T14:00:26.135Z,5.20
2022-10-22T14:02:55.531Z,7.05
2022-10-22T14:05:22.392Z,8.27
2022-10-22T14:07:49.629Z,6.05
2022-10-22T14:10:17.956Z,5.47
2022-10-22T14:12:49.285Z,4.68
2022-10-22T14:15:19.853Z,9.35
2022-10-22T14:17:52.146Z,4.55
2022-10-22T14:20:21.994Z,4.28
2022-10-22T14:22:50.136Z,6.35
2022-10-22T14:25:22.138Z,10.05
2022-10-22T14:27:48.980Z,10.13
2022-10-22T14:30:24.539Z,12.27
2022-10-22T14:32:52.005Z,8.70
2022-10-22T14:35:22.591Z,6.30
2022-10-22T14:37:49.880Z,9.00
2022-10-22T14:40:19.324Z,7.50
2022-10-22T14:42:48.094Z,11.10
2022-10-22T14:45:21.543Z,10.18
2022-10-22T14:47:50.136Z,9.73
2022-10-22T14:50:18.398Z,9.40
2022-10-22T14:52:45.488Z,11.75
2022-10-22T14:55:14.219Z,10.48
2022-10-22T14:57:41.689Z,11.63
2022-10-22T15:00:14.797Z,9.20
2022-10-22T15:02:41.974Z,7.63
2022-10-22T15:05:09.523Z,9.07
2022-10-22T15:07:36.743Z,10.02
2022-10-22T15:10:05.014Z,9.35
2022-10-22T15:12:32.307Z,10.35
2022-10-22T15:14:59.257Z,9.40
2022-10-22T15:17:26.125Z,8.15
2022-10-22T15:19:53.362Z,11.15
2022-10-22T15:22:20.830Z,13.10
2022-10-22T15:24:49.167Z,12.52
2022-10-22T15:27:16.284Z,12.18
2022-10-22T15:29:43.364Z,10.48
2022-10-22T15:32:13.039Z,9.57
2022-10-22T15:34:40.487Z,9.18
2022-10-22T15:37:10.370Z,9.05
2022-10-22T15:39:40.813Z,8.85
2022-10-22T15:58:38.310Z,73.60
2022-10-22T16:01:10.858Z,57.33
2022-10-22T16:03:38.195Z,26.80
2022-10-22T16:06:06.077Z,33.05
2022-10-22T16:08:33.560Z,36.65
2022-10-22T16:11:00.856Z,29.75
2022-10-22T16:13:28.034Z,23.42
2022-10-22T16:15:54.987Z,30.48
2022-10-22T16:18:23.787Z,23.55
2022-10-22T16:20:50.710Z,22.98
2022-10-22T16:23:19.127Z,15.95
2022-10-22T16:25:46.786Z,15.55
2022-10-22T16:28:14.352Z,15.43
2022-10-22T16:30:41.876Z,18.13
2022-10-22T16:33:10.139Z,17.30
2022-10-22T16:35:41.442Z,13.90
2022-10-22T16:38:10.604Z,17.65
2022-10-22T16:40:37.667Z,16.30
2022-10-22T16:43:04.719Z,10.68
2022-10-22T16:45:31.700Z,10.75
2022-10-22T16:47:58.624Z,12.00
2022-10-22T16:50:25.485Z,13.18
2022-10-22T16:52:52.689Z,10.18
2022-10-22T16:55:19.510Z,12.95
2022-10-22T16:57:53.741Z,8.60
2022-10-22T17:00:21.395Z,14.18
2022-10-22T17:02:53.180Z,15.25
2022-10-22T17:05:20.962Z,14.50
2022-10-22T17:07:48.081Z,13.25
2022-10-22T17:10:16.274Z,22.25
2022-10-22T17:12:43.487Z,30.13
2022-10-22T17:15:10.903Z,27.60
2022-10-22T17:17:39.137Z,21.05
2022-10-22T17:20:07.659Z,20.45
2022-10-22T17:22:34.643Z,20.38
2022-10-22T17:25:12.850Z,23.17
2022-10-22T17:27:40.885Z,23.48
2022-10-22T17:30:09.267Z,23.40
2022-10-22T17:32:39.046Z,21.52
2022-10-22T17:35:07.244Z,17.42
2022-10-22T17:37:35.052Z,15.88
2022-10-22T17:40:04.263Z,12.65
2022-10-22T17:42:31.520Z,13.43
2022-10-22T17:44:58.354Z,13.57
2022-10-22T17:47:25.173Z,16.75
2022-10-22T17:49:52.103Z,13.35
2022-10-22T17:52:18.943Z,15.82
2022-10-22T17:54:48.856Z,14.85
2022-10-22T17:57:16.141Z,15.77
2022-10-22T17:59:43.086Z,13.93
2022-10-22T18:02:15.495Z,13.95
2022-10-22T18:04:42.479Z,14.35
2022-10-22T18:07:13.491Z,20.10
2022-10-22T18:09:43.025Z,16.00
2022-10-22T18:12:11.894Z,15.48
2022-10-22T18:14:38.758Z,18.67
2022-10-22T18:17:05.676Z,16.67
2022-10-22T18:19:33.046Z,15.45
2022-10-22T18:22:00.668Z,19.27
2022-10-22T18:24:27.524Z,22.25
2022-10-22T18:26:54.505Z,18.15
2022-10-22T18:29:21.424Z,16.10
2022-10-22T18:31:48.993Z,21.23
2022-10-22T18:34:17.766Z,53.08
2022-10-22T18:36:47.156Z,55.33
2022-10-22T18:39:15.627Z,37.65
2022-10-22T18:41:43.426Z,38.10
2022-10-22T18:44:13.420Z,19.95
2022-10-22T18:46:40.644Z,19.20
2022-10-22T18:49:08.160Z,19.20
2022-10-22T18:51:36.296Z,20.20
2022-10-22T18:54:18.187Z,15.63
2022-10-22T18:56:48.736Z,16.35
2022-10-22T18:59:22.012Z,17.65
2022-10-22T19:01:49.492Z,19.85
2022-10-22T19:04:16.333Z,15.55
2022-10-22T19:06:46.029Z,17.17
2022-10-22T19:09:16.576Z,15.50
2022-10-22T19:11:47.150Z,14.48
2022-10-22T19:14:15.123Z,15.43
2022-10-22T21:02:18.954Z,16.25
2022-10-22T21:04:46.523Z,13.95
2022-10-22T21:07:13.477Z,13.32
2022-10-22T21:09:40.264Z,17.02
2022-10-22T21:12:07.204Z,14.60
2022-10-22T21:14:34.304Z,15.52
2022-10-22T21:17:01.170Z,16.83
2022-10-22T21:19:28.219Z,13.18
2022-10-22T21:21:55.161Z,14.15
2022-10-22T21:24:24.814Z,17.88
2022-10-22T21:26:52.558Z,16.58
2022-10-22T21:29:20.469Z,16.42
2022-10-22T21:31:47.518Z,17.85
2022-10-22T21:34:14.599Z,15.98
2022-10-22T21:36:41.446Z,14.50
2022-10-22T21:39:08.808Z,16.38
2022-10-22T21:41:37.476Z,15.02
2022-10-22T21:44:04.624Z,13.10
2022-10-22T21:46:31.401Z,16.48
2022-10-22T21:49:03.857Z,12.13
2022-10-22T21:51:33.043Z,15.20
2022-10-22T21:54:00.330Z,14.18
2022-10-22T21:56:30.140Z,15.80
2022-10-22T21:58:56.960Z,15.95
2022-10-22T22:01:24.233Z,15.05
2022-10-22T22:03:52.628Z,14.88
2022-10-22T22:06:22.031Z,14.43
2022-10-22T22:08:51.606Z,16.77
2022-10-22T22:11:21.207Z,14.15
2022-10-22T22:13:51.004Z,13.65
2022-10-22T22:16:25.494Z,17.42
2022-10-22T22:18:55.376Z,16.48
2022-10-22T22:21:22.181Z,16.33
2022-10-22T22:23:50.236Z,16.15
2022-10-22T22:26:25.262Z,13.77
2022-10-22T22:28:56.288Z,18.40
2022-10-22T22:31:26.161Z,17.58
2022-10-22T22:34:16.837Z,18.35
2022-10-22T22:36:46.319Z,16.95
2022-10-22T22:39:16.033Z,15.63
2022-10-22T22:41:43.434Z,18.90
2022-10-22T22:44:10.555Z,14.07
2022-10-22T22:46:37.385Z,17.75
2022-10-22T22:49:04.432Z,14.73
2022-10-22T22:51:31.640Z,14.45
2022-10-22T22:54:00.261Z,17.17
2022-10-22T22:56:30.163Z,13.80
2022-10-22T22:58:57.645Z,16.77
2022-10-22T23:01:27.076Z,18.52
2022-10-22T23:03:56.990Z,17.02
2022-10-22T23:06:25.837Z,22.25
2022-10-22T23:08:53.127Z,16.75
2022-10-22T23:11:21.043Z,19.65
2022-10-22T23:13:51.159Z,16.63
2022-10-22T23:16:23.637Z,15.70
2022-10-22T23:18:52.075Z,16.25
2022-10-22T23:21:27.026Z,14.57
2022-10-22T23:23:57.267Z,16.35
2022-10-22T23:26:27.784Z,16.23
2022-10-22T23:28:54.641Z,17.75
2022-10-22T23:31:24.112Z,18.73
2022-10-22T23:33:50.895Z,17.30
2022-10-22T23:36:17.741Z,15.80
2022-10-22T23:38:44.655Z,15.50
2022-10-22T23:41:11.492Z,17.85
2022-10-22T23:43:38.485Z,15.38
2022-10-22T23:46:06.894Z,17.65
2022-10-22T23:48:33.960Z,17.67
2022-10-22T23:51:09.322Z,19.02
2022-10-22T23:53:36.139Z,20.13
2022-10-22T23:56:05.185Z,16.15
2022-10-22T23:58:32.464Z,19.42
